You are not logged in, Click here to log in
ICAO: ZLXY Country: 中華人民共和國陕西省咸阳市
Latitude: 34.4371 Longitude: 108.757
Total Arrivals: 7 Total Departures: 6
Latest Arrival: CZ6948 (ZBAA-ZLXY)Lun. Wang Latest Departure: 9C8915 (ZLXY-RJBB)Jason. Li
Scenery:
METAR : ZLXY 180700Z 05004MPS 350V100 CAVOK 35/21 Q1003 NOSIG

西安咸陽國際機場